Babbitt, Nevada
Current Conditions -  °F | °C
As of 7:52 AM on Thursday 30 Oct 2014 (Local Time) from KBAN Reporting Station
Clear Clear  
Wind Chill: 25°   Ceiling: Unl
Heat Index: 25°   Visibility: NA
Dew Point: 15°   Wind: 0mph
Humidity: 66%   Direction: NA
Pressure: 30.22"   Gusts: NA
Location:  38.6331°N, 118.656°W
Report Text: KBAN 301452Z AUTO 00000KT CLR M04/M09 A3022 RMK AO2 SLP226 T10391094 58002 FZRANO $
Loading
Personal Weather Stations






























Interactive Weather Map
Tropical Storm Tracking
New forecast layout! Learn more

10-Day Weather Forecast

Advertisements
Track Severe Weather on mobile